Time;durP1;ratioP1;P1;durP2;ratioP2;P2;SDS_P1;SDS_P2;PMS_P1;PMS_P2;Temp;Humidity;BMP_temperature;BMP_pressure;BME280_temperature;BME280_humidity;BME280_pressure;Samples;Min_cycle;Max_cycle;Signal;HPM_P1;HPM_P2
2022/01/29 00:01:53;;;;;;;108.97;28.98;;;5.40;99.90;;;;;;4952924;29;20062;-67
2022/01/29 00:04:19;;;;;;;184.35;33.83;;;5.30;99.90;;;;;;4952535;29;20488;-69
2022/01/29 00:06:45;;;;;;;82.82;27.73;;;5.20;99.90;;;;;;4952223;29;20067;-67
2022/01/29 00:09:14;;;;;;;98.85;26.50;;;5.30;99.90;;;;;;4953408;28;20481;-68
2022/01/29 00:11:44;;;;;;;95.68;25.23;;;5.30;99.90;;;;;;4953579;29;20027;-67
2022/01/29 00:14:10;;;;;;;162.60;25.50;;;5.40;99.90;;;;;;4950946;29;20035;-71
2022/01/29 00:16:37;;;;;;;132.20;23.90;;;5.40;99.90;;;;;;4951268;28;20031;-69
2022/01/29 00:19:03;;;;;;;226.00;25.08;;;5.20;99.90;;;;;;4950836;29;20119;-69
2022/01/29 00:21:29;;;;;;;154.43;25.67;;;5.00;99.90;;;;;;4950542;29;20062;-68
2022/01/29 00:23:55;;;;;;;233.98;29.85;;;5.00;99.90;;;;;;4954511;28;20024;-69
2022/01/29 00:26:21;;;;;;;81.05;25.05;;;5.20;99.90;;;;;;4951058;29;20106;-68
2022/01/29 00:28:47;;;;;;;79.00;23.77;;;5.10;99.90;;;;;;4950799;29;20027;-68
2022/01/29 00:31:13;;;;;;;240.32;30.80;;;5.20;99.90;;;;;;4950883;29;20452;-68
2022/01/29 00:33:39;;;;;;;246.15;30.02;;;5.10;99.90;;;;;;4951077;29;20386;-69
2022/01/29 00:36:05;;;;;;;184.75;30.48;;;5.00;99.90;;;;;;4952922;29;20031;-67
2022/01/29 00:38:31;;;;;;;76.05;21.67;;;4.90;99.90;;;;;;4952192;29;20028;-69
2022/01/29 00:40:57;;;;;;;131.80;22.02;;;5.10;99.90;;;;;;4951727;29;20445;-68
2022/01/29 00:43:23;;;;;;;159.07;23.33;;;5.20;99.90;;;;;;4950056;29;20020;-69
2022/01/29 00:45:49;;;;;;;109.60;24.00;;;5.10;99.90;;;;;;4951972;28;20042;-67
2022/01/29 00:48:14;;;;;;;167.27;25.75;;;4.90;99.90;;;;;;4951886;28;20050;-68
2022/01/29 00:50:40;;;;;;;159.50;24.02;;;4.80;99.90;;;;;;4952568;29;20596;-68
2022/01/29 00:53:06;;;;;;;87.07;26.05;;;5.00;99.90;;;;;;4949511;28;20547;-69
2022/01/29 00:55:32;;;;;;;55.78;20.08;;;4.90;99.90;;;;;;4949605;29;20027;-69
2022/01/29 00:57:58;;;;;;;74.88;22.17;;;5.00;99.90;;;;;;4949883;29;20023;-69
2022/01/29 01:00:23;;;;;;;74.82;20.38;;;5.00;99.90;;;;;;4950448;28;20035;-69
2022/01/29 01:02:49;;;;;;;96.13;24.20;;;5.00;99.90;;;;;;4953840;29;20437;-68
2022/01/29 01:05:15;;;;;;;86.80;23.50;;;4.80;99.90;;;;;;4949977;28;20063;-69
2022/01/29 01:07:41;;;;;;;59.25;21.15;;;4.90;99.90;;;;;;4950156;29;20023;-69
2022/01/29 01:10:08;;;;;;;147.77;24.85;;;5.10;99.90;;;;;;4950129;28;20039;-69
2022/01/29 01:12:34;;;;;;;81.15;23.15;;;5.00;99.90;;;;;;4949896;28;20036;-68
2022/01/29 01:15:00;;;;;;;122.07;26.98;;;4.80;99.90;;;;;;4953116;28;20469;-68
2022/01/29 01:17:26;;;;;;;58.22;23.27;;;4.90;99.90;;;;;;4950847;29;20073;-69
2022/01/29 01:19:52;;;;;;;126.13;29.42;;;4.90;99.90;;;;;;4950768;29;20122;-68
2022/01/29 01:22:18;;;;;;;114.53;31.30;;;4.80;99.90;;;;;;4950146;29;20059;-68
2022/01/29 01:24:45;;;;;;;100.60;30.60;;;4.70;99.90;;;;;;4951909;29;20023;-68
2022/01/29 01:27:10;;;;;;;95.35;28.60;;;4.80;99.90;;;;;;4952299;28;20035;-70
2022/01/29 01:29:36;;;;;;;82.60;35.97;;;4.90;99.90;;;;;;4951868;29;20043;-69
2022/01/29 01:32:02;;;;;;;111.03;44.05;;;4.90;99.90;;;;;;4949692;29;20587;-69
2022/01/29 01:34:33;;;;;;;75.07;29.30;;;4.80;99.90;;;;;;4949525;29;20028;-69
2022/01/29 01:37:05;;;;;;;81.32;29.70;;;4.80;99.90;;;;;;4950315;29;20079;-68
2022/01/29 01:39:34;;;;;;;63.25;27.75;;;4.80;99.90;;;;;;4935193;29;20498;-69
2022/01/29 01:42:04;;;;;;;85.22;30.42;;;4.80;99.90;;;;;;4952199;28;20122;-69
2022/01/29 01:44:46;;;;;;;79.30;31.85;;;4.80;99.90;;;;;;4950577;29;20110;-67
2022/01/29 01:47:14;;;;;;;70.10;27.98;;;4.80;99.90;;;;;;4949693;28;20049;-69
2022/01/29 01:49:40;;;;;;;54.60;22.98;;;4.80;99.90;;;;;;4949438;29;20043;-69
2022/01/29 01:52:09;;;;;;;57.95;22.00;;;4.60;99.90;;;;;;4949680;29;20041;-70
2022/01/29 01:54:35;;;;;;;55.97;22.85;;;4.70;99.90;;;;;;4950122;29;20092;-70
2022/01/29 01:57:01;;;;;;;60.38;21.90;;;4.70;99.90;;;;;;4952317;29;20031;-70
2022/01/29 01:59:28;;;;;;;49.28;23.88;;;4.60;99.90;;;;;;4951978;29;20503;-69
2022/01/29 02:01:54;;;;;;;53.97;22.25;;;4.60;99.90;;;;;;4949305;29;20428;-69
2022/01/29 02:04:19;;;;;;;75.70;27.27;;;4.60;99.90;;;;;;4950622;29;20027;-69
2022/01/29 02:06:46;;;;;;;62.60;25.52;;;4.60;99.90;;;;;;4959696;28;20037;-69
2022/01/29 02:09:15;;;;;;;61.47;22.20;;;4.70;99.90;;;;;;4955734;28;20019;-69
2022/01/29 02:11:53;;;;;;;70.60;23.55;;;4.60;99.90;;;;;;4955832;29;20031;-69
2022/01/29 02:14:20;;;;;;;62.90;24.88;;;4.50;99.90;;;;;;4953246;28;20045;-70
2022/01/29 02:16:46;;;;;;;73.93;28.05;;;4.50;99.90;;;;;;4953186;29;20118;-69
2022/01/29 02:19:12;;;;;;;50.63;23.27;;;4.40;99.90;;;;;;4952589;29;20114;-70
2022/01/29 02:21:38;;;;;;;59.70;24.63;;;4.50;99.90;;;;;;4952997;29;20119;-70
2022/01/29 02:24:04;;;;;;;43.95;22.75;;;4.60;99.90;;;;;;4955966;28;20563;-70
2022/01/29 02:26:30;;;;;;;52.10;24.08;;;4.40;99.90;;;;;;4954460;29;20067;-70
2022/01/29 02:28:56;;;;;;;54.38;24.60;;;4.50;99.90;;;;;;4953032;29;20452;-70
2022/01/29 02:31:22;;;;;;;65.25;26.17;;;4.50;99.90;;;;;;4953067;28;20431;-70
2022/01/29 02:33:48;;;;;;;52.40;25.27;;;4.30;99.90;;;;;;4952767;29;20118;-70
2022/01/29 02:36:14;;;;;;;56.30;26.05;;;4.40;99.90;;;;;;4954430;28;20027;-70
2022/01/29 02:38:39;;;;;;;61.65;25.58;;;4.40;99.90;;;;;;4957041;29;20121;-70
2022/01/29 02:41:06;;;;;;;95.85;30.70;;;4.40;99.90;;;;;;4953934;29;20039;-69
2022/01/29 02:43:51;;;;;;;86.68;32.25;;;4.40;99.90;;;;;;4954428;28;20032;-70
2022/01/29 02:48:56;;;;;;;76.50;29.13;;;4.60;99.90;;;;;;4952855;28;20505;-69
2022/01/29 02:51:23;;;;;;;75.88;29.35;;;4.50;99.90;;;;;;4953312;28;20059;-70
2022/01/29 02:53:49;;;;;;;54.85;26.42;;;4.50;99.90;;;;;;4956172;29;20489;-70
2022/01/29 02:56:16;;;;;;;80.05;29.73;;;4.60;99.90;;;;;;4952496;29;20027;-70
2022/01/29 02:58:42;;;;;;;96.50;34.95;;;4.60;99.90;;;;;;4952367;29;20401;-70
2022/01/29 03:01:09;;;;;;;104.20;32.85;;;4.50;99.90;;;;;;4951816;29;20491;-70
2022/01/29 03:03:34;;;;;;;59.42;28.40;;;4.50;99.90;;;;;;4952543;29;20062;-70
2022/01/29 03:06:02;;;;;;;83.80;30.85;;;4.50;99.90;;;;;;4955713;29;20027;-68
2022/01/29 03:08:28;;;;;;;67.07;29.80;;;4.50;99.90;;;;;;4955057;29;20082;-69
2022/01/29 03:10:54;;;;;;;50.47;26.42;;;4.50;99.90;;;;;;4952256;28;20035;-69
2022/01/29 03:13:20;;;;;;;44.13;24.42;;;4.60;99.90;;;;;;4952034;29;20035;-70
2022/01/29 03:15:46;;;;;;;61.45;28.10;;;4.60;99.90;;;;;;4952326;28;20488;-70
2022/01/29 03:18:11;;;;;;;53.33;25.92;;;4.70;99.90;;;;;;4953456;28;20078;-70
2022/01/29 03:20:37;;;;;;;47.38;25.50;;;4.40;99.90;;;;;;4953946;29;20400;-69
2022/01/29 03:23:03;;;;;;;50.03;26.75;;;4.30;99.90;;;;;;4953343;29;20032;-70
2022/01/29 03:25:29;;;;;;;52.97;26.40;;;4.40;99.90;;;;;;4952136;29;20028;-69
2022/01/29 03:27:54;;;;;;;64.85;28.30;;;4.30;99.90;;;;;;4951784;29;20441;-69
2022/01/29 03:30:20;;;;;;;85.03;42.20;;;4.30;99.90;;;;;;4952612;29;20569;-71
2022/01/29 03:32:46;;;;;;;59.95;29.15;;;4.30;99.90;;;;;;4955060;29;20082;-69
2022/01/29 03:35:12;;;;;;;54.13;25.35;;;4.30;99.90;;;;;;4951842;29;20031;-69
2022/01/29 03:37:38;;;;;;;57.58;25.83;;;4.30;99.90;;;;;;4951414;29;20042;-70
2022/01/29 03:40:07;;;;;;;65.40;28.60;;;4.10;99.90;;;;;;4951668;29;20031;-69
2022/01/29 03:42:39;;;;;;;57.05;24.45;;;4.20;99.90;;;;;;4951441;29;20044;-69
2022/01/29 03:45:09;;;;;;;74.18;30.45;;;4.00;99.90;;;;;;4953850;28;20024;-70
2022/01/29 03:47:35;;;;;;;65.28;29.38;;;4.00;99.90;;;;;;4953324;28;20035;-70
2022/01/29 03:50:01;;;;;;;51.95;28.55;;;4.00;99.90;;;;;;4951139;28;20070;-69
2022/01/29 03:52:27;;;;;;;64.82;33.97;;;4.00;99.90;;;;;;4951508;28;20547;-69
2022/01/29 03:54:52;;;;;;;55.65;21.15;;;4.00;99.90;;;;;;4953376;29;20031;-70
2022/01/29 03:57:18;;;;;;;61.30;26.35;;;4.00;99.90;;;;;;4952734;29;20031;-69
2022/01/29 03:59:44;;;;;;;49.30;23.40;;;4.10;99.90;;;;;;4953813;29;20034;-69
2022/01/29 04:02:10;;;;;;;63.92;28.38;;;4.00;99.90;;;;;;4952777;29;20046;-69
2022/01/29 04:04:35;;;;;;;76.18;24.13;;;4.00;99.90;;;;;;4951233;29;20522;-69
2022/01/29 04:07:06;;;;;;;61.85;23.15;;;4.00;99.90;;;;;;4951509;28;20126;-70
2022/01/29 04:09:33;;;;;;;36.67;21.27;;;3.90;99.90;;;;;;4951415;29;20066;-70
2022/01/29 04:11:58;;;;;;;38.80;20.10;;;3.90;99.90;;;;;;4954360;28;20038;-70
2022/01/29 04:14:31;;;;;;;53.22;23.60;;;3.90;99.90;;;;;;4951448;29;20035;-68
2022/01/29 04:16:56;;;;;;;43.38;21.73;;;3.90;99.90;;;;;;4950781;28;20059;-68
2022/01/29 04:19:22;;;;;;;60.10;24.25;;;3.80;99.90;;;;;;4951147;29;20563;-69
2022/01/29 04:21:48;;;;;;;71.68;26.92;;;3.70;99.90;;;;;;4951146;29;20059;-68
2022/01/29 04:24:13;;;;;;;51.08;24.27;;;3.70;99.90;;;;;;4952922;29;20023;-68
2022/01/29 04:26:39;;;;;;;62.25;25.63;;;3.80;99.90;;;;;;4953013;29;20055;-69
2022/01/29 04:29:08;;;;;;;50.17;24.50;;;3.80;99.90;;;;;;4949827;28;20027;-69
2022/01/29 04:34:10;;;;;;;40.40;22.80;;;3.70;99.90;;;;;;4952580;29;20023;-68
2022/01/29 04:36:36;;;;;;;43.88;20.85;;;3.80;99.90;;;;;;4950652;28;20043;-67
2022/01/29 04:39:03;;;;;;;46.95;23.23;;;3.90;99.90;;;;;;4953412;29;20023;-68
2022/01/29 04:41:28;;;;;;;94.05;28.30;;;3.90;99.90;;;;;;4953010;29;20512;-68
2022/01/29 04:43:54;;;;;;;72.03;26.23;;;3.80;99.90;;;;;;4950296;29;20027;-69
2022/01/29 04:46:20;;;;;;;70.72;26.88;;;3.70;99.90;;;;;;4950701;29;20042;-69
2022/01/29 04:48:46;;;;;;;72.72;25.20;;;3.70;99.90;;;;;;4949184;28;20043;-67
2022/01/29 04:51:11;;;;;;;39.13;20.45;;;3.60;99.90;;;;;;4952871;29;20063;-69
2022/01/29 04:53:40;;;;;;;73.43;24.75;;;3.70;99.90;;;;;;4952209;29;20027;-68
2022/01/29 04:56:06;;;;;;;54.05;21.85;;;3.60;99.90;;;;;;4950142;29;20035;-69
2022/01/29 04:58:32;;;;;;;63.20;23.92;;;3.60;99.90;;;;;;4949646;28;20090;-68
2022/01/29 05:00:58;;;;;;;73.60;25.42;;;3.60;99.90;;;;;;4950469;28;20039;-68
2022/01/29 05:03:23;;;;;;;40.92;21.58;;;3.60;99.90;;;;;;4951294;28;25077;-68
2022/01/29 05:05:49;;;;;;;34.38;20.48;;;3.60;99.90;;;;;;4953603;29;20031;-68
2022/01/29 05:08:16;;;;;;;58.15;24.45;;;3.70;99.90;;;;;;4949957;29;20090;-69
2022/01/29 05:10:42;;;;;;;55.95;25.95;;;3.50;99.90;;;;;;4950543;28;20118;-68
2022/01/29 05:13:11;;;;;;;55.47;25.20;;;3.50;99.90;;;;;;4951121;29;20115;-67
2022/01/29 05:15:39;;;;;;;53.65;24.35;;;3.60;99.90;;;;;;4950222;29;20038;-68
2022/01/29 05:29:04;;;;;;;44.97;19.73;;;3.50;99.90;;;;;;4949733;29;20058;-67
2022/01/29 05:31:30;;;;;;;47.67;21.55;;;3.50;99.90;;;;;;4949827;29;20078;-67
2022/01/29 05:33:57;;;;;;;46.45;22.20;;;3.50;99.90;;;;;;4949918;29;20031;-67
2022/01/29 05:36:22;;;;;;;45.50;19.77;;;3.60;99.90;;;;;;4950591;28;20043;-68
2022/01/29 05:38:48;;;;;;;48.03;20.65;;;3.50;99.90;;;;;;4952952;29;20384;-67
2022/01/29 05:41:14;;;;;;;60.92;22.60;;;3.50;99.90;;;;;;4949091;28;20045;-67
2022/01/29 05:43:40;;;;;;;61.53;23.38;;;3.40;99.90;;;;;;4949650;28;20019;-67
2022/01/29 05:46:05;;;;;;;44.55;20.67;;;3.50;99.90;;;;;;4949853;29;20027;-67
2022/01/29 05:48:31;;;;;;;59.92;23.45;;;3.50;99.90;;;;;;4949736;29;20042;-67
2022/01/29 05:50:57;;;;;;;46.50;20.45;;;3.40;99.90;;;;;;4953608;29;20035;-67
2022/01/29 05:53:22;;;;;;;39.80;19.42;;;3.40;99.90;;;;;;4950435;29;20031;-67
2022/01/29 05:55:48;;;;;;;52.35;22.23;;;3.30;99.90;;;;;;4949203;28;20111;-67
2022/01/29 05:58:14;;;;;;;33.88;16.90;;;3.40;99.90;;;;;;4950846;29;20027;-68
2022/01/29 06:00:40;;;;;;;64.30;22.20;;;3.50;99.90;;;;;;4949827;29;20035;-69
2022/01/29 06:03:09;;;;;;;36.92;17.25;;;3.30;99.90;;;;;;4951891;28;20075;-69
2022/01/29 06:05:36;;;;;;;34.67;18.45;;;3.30;99.90;;;;;;4951273;29;20055;-69
2022/01/29 06:08:02;;;;;;;36.97;17.65;;;3.40;99.90;;;;;;4949502;29;20050;-69
2022/01/29 06:10:28;;;;;;;29.73;17.70;;;3.50;99.90;;;;;;4949436;28;20028;-68
2022/01/29 06:13:04;;;;;;;32.42;18.08;;;3.40;99.90;;;;;;4949436;29;20031;-68
2022/01/29 06:15:37;;;;;;;25.33;16.70;;;3.30;99.90;;;;;;4934716;29;20027;-69
2022/01/29 06:18:03;;;;;;;41.72;18.35;;;3.40;99.90;;;;;;4952159;28;20023;-69
2022/01/29 06:20:29;;;;;;;34.00;16.67;;;3.40;99.90;;;;;;4950789;29;20114;-69
2022/01/29 06:22:55;;;;;;;31.25;17.00;;;3.30;99.90;;;;;;4949465;29;20640;-68
2022/01/29 06:25:21;;;;;;;35.85;18.35;;;3.40;99.90;;;;;;4949101;29;20037;-68
2022/01/29 06:27:47;;;;;;;38.28;18.90;;;3.40;99.90;;;;;;4949355;29;20107;-69
2022/01/29 06:30:14;;;;;;;30.27;16.50;;;3.40;99.90;;;;;;4950813;29;20103;-69
2022/01/29 06:32:40;;;;;;;26.40;15.65;;;3.30;99.90;;;;;;4951549;29;20114;-69
2022/01/29 06:35:06;;;;;;;28.75;16.05;;;3.30;99.90;;;;;;4949156;29;20309;-69
2022/01/29 06:37:32;;;;;;;37.33;17.58;;;3.20;99.90;;;;;;4950792;29;20035;-68
2022/01/29 06:39:58;;;;;;;44.83;19.73;;;3.20;99.90;;;;;;4949235;29;20030;-67
2022/01/29 06:42:23;;;;;;;48.38;21.23;;;3.10;99.90;;;;;;4949940;29;20038;-68
2022/01/29 06:44:49;;;;;;;35.13;16.33;;;3.10;99.90;;;;;;4952672;29;20030;-68
2022/01/29 06:47:15;;;;;;;30.02;16.08;;;3.10;99.90;;;;;;4949201;29;20032;-69
2022/01/29 06:49:40;;;;;;;36.47;19.17;;;3.00;99.90;;;;;;4948901;29;20036;-68
2022/01/29 06:52:06;;;;;;;35.63;17.77;;;2.90;99.90;;;;;;4950202;28;20519;-72
2022/01/29 06:54:32;;;;;;;25.83;16.65;;;2.90;99.90;;;;;;4953283;28;20027;-69
2022/01/29 06:56:58;;;;;;;39.25;19.08;;;3.10;99.90;;;;;;4955482;29;20088;-69
2022/01/29 06:59:23;;;;;;;30.48;17.52;;;3.00;99.90;;;;;;4953193;29;20024;-69
2022/01/29 07:01:49;;;;;;;28.58;17.65;;;2.80;99.90;;;;;;4952573;29;20552;-69
2022/01/29 07:04:15;;;;;;;30.40;16.83;;;2.80;99.90;;;;;;4952319;29;20086;-69
2022/01/29 07:06:41;;;;;;;27.50;16.98;;;2.90;99.90;;;;;;4952359;28;20042;-68
2022/01/29 07:09:06;;;;;;;21.05;15.32;;;2.80;99.90;;;;;;4954525;29;20027;-68
2022/01/29 07:11:32;;;;;;;27.65;17.17;;;2.80;99.90;;;;;;4955233;29;20035;-67
2022/01/29 07:14:02;;;;;;;34.78;19.55;;;2.70;99.90;;;;;;4952306;29;20073;-67
2022/01/29 07:16:29;;;;;;;37.25;18.88;;;2.80;99.90;;;;;;4953416;29;20027;-69
2022/01/29 07:18:55;;;;;;;34.38;19.02;;;2.70;99.90;;;;;;4951831;29;20054;-69
2022/01/29 07:21:21;;;;;;;49.97;26.70;;;2.70;99.90;;;;;;4953471;29;20547;-67
2022/01/29 07:23:46;;;;;;;47.38;21.98;;;2.70;99.90;;;;;;4954552;29;20102;-67
2022/01/29 07:26:12;;;;;;;31.60;18.48;;;2.70;99.90;;;;;;4951920;29;20031;-69
2022/01/29 07:28:39;;;;;;;37.90;22.25;;;2.80;99.90;;;;;;4951801;29;20019;-69
2022/01/29 07:31:05;;;;;;;41.17;20.35;;;2.90;99.90;;;;;;4951477;29;20455;-69
2022/01/29 07:33:31;;;;;;;30.70;16.77;;;2.90;99.90;;;;;;4951478;28;20023;-69
2022/01/29 07:35:57;;;;;;;33.60;18.85;;;2.80;99.90;;;;;;4956029;29;20031;-69
2022/01/29 07:38:23;;;;;;;40.03;19.10;;;2.70;99.90;;;;;;4951248;29;20032;-70
2022/01/29 07:40:48;;;;;;;28.23;16.20;;;2.80;99.90;;;;;;4951620;28;20066;-70
2022/01/29 07:43:14;;;;;;;33.97;18.00;;;2.70;99.90;;;;;;4951547;28;20028;-70
2022/01/29 07:45:40;;;;;;;42.60;20.85;;;2.60;99.90;;;;;;4951438;29;20040;-70
2022/01/29 07:48:06;;;;;;;28.48;18.42;;;2.60;99.90;;;;;;4954356;29;20082;-70
2022/01/29 07:50:32;;;;;;;41.22;21.75;;;2.70;99.90;;;;;;4954121;29;20035;-70
2022/01/29 07:52:59;;;;;;;45.25;19.92;;;2.70;99.90;;;;;;4951174;29;20141;-70
2022/01/29 07:55:32;;;;;;;45.67;21.27;;;2.60;99.90;;;;;;4952879;28;20034;-70
2022/01/29 07:57:59;;;;;;;38.83;18.67;;;2.80;99.90;;;;;;4951596;28;20046;-70
2022/01/29 08:00:25;;;;;;;41.72;22.50;;;2.70;99.90;;;;;;4951698;28;20141;-70
2022/01/29 08:02:51;;;;;;;40.05;20.38;;;3.00;99.90;;;;;;4955096;28;20115;-69
2022/01/29 08:05:16;;;;;;;42.90;21.10;;;2.80;99.90;;;;;;4950943;29;20035;-70
2022/01/29 08:07:42;;;;;;;46.53;22.50;;;2.90;99.90;;;;;;4951161;28;20572;-70
2022/01/29 08:10:08;;;;;;;28.92;15.13;;;2.80;99.90;;;;;;4950882;28;20026;-70
2022/01/29 08:12:34;;;;;;;22.45;14.90;;;2.80;99.90;;;;;;4950805;29;20027;-71
2022/01/29 08:15:01;;;;;;;22.63;14.45;;;2.60;99.90;;;;;;4954148;28;20086;-70
2022/01/29 08:17:27;;;;;;;28.52;15.35;;;2.60;99.90;;;;;;4952058;29;20488;-70
2022/01/29 08:19:52;;;;;;;38.88;14.55;;;2.60;99.90;;;;;;4950943;29;20084;-70
2022/01/29 08:22:18;;;;;;;37.30;15.18;;;2.60;99.90;;;;;;4950899;29;20118;-70
2022/01/29 08:24:44;;;;;;;32.55;15.38;;;2.60;99.90;;;;;;4951101;29;20393;-69
2022/01/29 08:27:10;;;;;;;22.65;15.73;;;2.70;99.90;;;;;;4952857;28;20035;-69
2022/01/29 08:29:37;;;;;;;33.08;16.80;;;2.80;99.90;;;;;;4969287;28;20019;-69
2022/01/29 08:32:04;;;;;;;30.42;18.85;;;2.70;99.90;;;;;;4950520;29;20027;-69
2022/01/29 08:34:30;;;;;;;36.78;16.38;;;2.70;99.90;;;;;;4951755;29;20463;-69
2022/01/29 08:37:00;;;;;;;22.40;13.25;;;2.50;99.90;;;;;;4951144;29;20062;-68
2022/01/29 08:39:26;;;;;;;15.27;11.10;;;2.50;99.90;;;;;;4935932;29;20106;-68
2022/01/29 08:41:52;;;;;;;12.73;10.18;;;2.40;99.90;;;;;;4954359;29;20154;-70
2022/01/29 08:44:18;;;;;;;11.77;9.45;;;2.60;99.90;;;;;;4950445;29;20031;-70
2022/01/29 08:46:44;;;;;;;13.43;10.30;;;2.40;99.90;;;;;;4949792;28;20513;-70
2022/01/29 08:49:09;;;;;;;14.63;10.77;;;2.60;99.90;;;;;;4949484;29;20409;-69
2022/01/29 08:51:35;;;;;;;12.63;9.98;;;2.60;99.90;;;;;;4950302;29;20027;-70
2022/01/29 08:54:01;;;;;;;10.70;9.02;;;2.70;99.90;;;;;;4953206;28;20027;-69
2022/01/29 08:56:27;;;;;;;17.25;11.88;;;2.70;99.90;;;;;;4951489;29;20035;-70
2022/01/29 08:58:53;;;;;;;13.50;10.52;;;2.80;99.90;;;;;;4949566;29;20027;-70
2022/01/29 09:01:19;;;;;;;15.73;10.88;;;2.70;99.90;;;;;;4949992;29;20047;-69
2022/01/29 09:03:45;;;;;;;15.38;12.00;;;2.60;99.90;;;;;;4949934;28;20028;-69
2022/01/29 09:06:10;;;;;;;10.35;8.70;;;2.60;99.90;;;;;;4952228;29;20393;-68
2022/01/29 09:08:38;;;;;;;10.73;8.57;;;2.60;99.90;;;;;;4953521;29;20023;-69
2022/01/29 09:11:04;;;;;;;12.45;10.45;;;2.60;99.90;;;;;;4940080;28;20493;-72
2022/01/29 09:13:30;;;;;;;14.02;11.50;;;2.80;99.90;;;;;;4944206;29;20030;-74
2022/01/29 09:15:57;;;;;;;10.70;8.50;;;2.70;99.90;;;;;;4949563;28;20038;-70
2022/01/29 09:18:23;;;;;;;10.98;9.10;;;2.60;99.90;;;;;;4950159;28;20094;-71
2022/01/29 09:20:48;;;;;;;14.20;11.23;;;2.80;99.90;;;;;;4953429;29;20519;-70
2022/01/29 09:23:14;;;;;;;12.82;10.02;;;2.70;99.90;;;;;;4949926;28;20070;-70
2022/01/29 09:25:40;;;;;;;15.60;12.25;;;2.70;99.90;;;;;;4950206;28;20027;-71
2022/01/29 09:28:08;;;;;;;18.63;13.95;;;2.80;99.90;;;;;;4946137;28;20086;-71
2022/01/29 09:30:34;;;;;;;23.05;18.67;;;2.60;99.90;;;;;;4952167;28;20034;-73
2022/01/29 09:33:00;;;;;;;20.58;17.88;;;2.70;99.90;;;;;;4967593;28;20026;-72
2022/01/29 09:35:27;;;;;;;16.48;13.10;;;2.70;99.90;;;;;;4953817;28;20031;-69
2022/01/29 09:37:54;;;;;;;16.70;13.68;;;2.80;99.90;;;;;;4949161;28;20192;-70
2022/01/29 09:40:20;;;;;;;18.27;15.15;;;2.80;99.90;;;;;;4948531;28;20592;-70
2022/01/29 09:42:49;;;;;;;22.13;18.42;;;2.70;99.90;;;;;;4949363;29;20401;-71
2022/01/29 09:45:17;;;;;;;18.55;13.10;;;2.90;99.90;;;;;;4949837;28;20035;-69
2022/01/29 09:47:45;;;;;;;14.80;12.40;;;2.60;99.90;;;;;;4952910;29;20031;-73
2022/01/29 09:50:14;;;;;;;12.00;10.10;;;2.50;99.90;;;;;;4937928;28;20082;-72
2022/01/29 09:52:39;;;;;;;11.93;9.90;;;2.80;99.90;;;;;;4940344;29;20111;-73
2022/01/29 09:55:07;;;;;;;13.35;10.63;;;2.90;99.90;;;;;;4941987;29;20500;-73
2022/01/29 09:57:33;;;;;;;12.27;10.45;;;2.90;99.90;;;;;;4943515;28;20390;-75
2022/01/29 09:59:59;;;;;;;9.57;8.23;;;2.80;99.90;;;;;;4952967;28;20025;-74
2022/01/29 10:02:26;;;;;;;10.30;8.80;;;3.00;99.90;;;;;;4949327;28;20050;-75
2022/01/29 10:04:57;;;;;;;7.75;6.95;;;3.10;99.90;;;;;;4946480;28;20167;-73
2022/01/29 10:07:26;;;;;;;8.60;7.57;;;3.00;99.90;;;;;;4946758;29;20082;-75
2022/01/29 10:09:52;;;;;;;7.60;6.72;;;3.20;99.90;;;;;;4946193;28;20035;-72
2022/01/29 10:12:27;;;;;;;7.75;6.95;;;3.20;99.90;;;;;;4949823;29;20409;-72
2022/01/29 10:15:04;;;;;;;9.50;7.65;;;3.10;99.90;;;;;;4949850;29;20058;-72
2022/01/29 10:17:53;;;;;;;8.10;7.03;;;2.90;99.90;;;;;;4947009;29;20122;-73
2022/01/29 10:20:27;;;;;;;9.40;7.85;;;3.10;99.90;;;;;;4946160;29;20031;-70
2022/01/29 10:22:57;;;;;;;11.27;8.73;;;2.90;99.90;;;;;;4943329;28;20047;-74
2022/01/29 10:25:26;;;;;;;10.60;9.38;;;3.00;99.90;;;;;;4950725;28;20035;-71
2022/01/29 10:28:11;;;;;;;16.33;13.18;;;3.30;99.90;;;;;;4950918;29;20480;-71
2022/01/29 10:30:48;;;;;;;16.52;13.43;;;3.00;99.90;;;;;;4939684;29;20035;-73
2022/01/29 10:33:39;;;;;;;12.13;10.02;;;3.20;99.90;;;;;;4953504;28;20054;-72
2022/01/29 10:36:07;;;;;;;13.70;11.30;;;3.40;99.90;;;;;;4954932;28;20023;-72
2022/01/29 10:38:55;;;;;;;10.20;8.35;;;3.30;99.90;;;;;;4954065;28;20424;-72
2022/01/29 10:41:30;;;;;;;8.90;7.47;;;3.20;99.90;;;;;;4951794;28;20043;-71
2022/01/29 10:44:10;;;;;;;10.63;7.35;;;3.20;99.90;;;;;;4951287;28;20031;-72
2022/01/29 10:46:47;;;;;;;8.27;7.28;;;3.30;99.90;;;;;;4951732;28;20121;-72
2022/01/29 10:49:22;;;;;;;11.43;9.82;;;3.30;99.90;;;;;;4951497;28;20047;-71
2022/01/29 10:52:09;;;;;;;9.40;7.75;;;3.20;99.90;;;;;;4951142;28;20028;-69
2022/01/29 10:54:41;;;;;;;8.07;7.28;;;2.90;99.90;;;;;;4946939;29;20058;-69
2022/01/29 10:57:10;;;;;;;9.70;8.70;;;2.80;99.90;;;;;;4947588;28;20511;-69
2022/01/29 10:59:45;;;;;;;10.95;8.35;;;3.10;99.90;;;;;;4946122;28;20038;-68
2022/01/29 11:02:12;;;;;;;11.68;9.13;;;3.00;99.90;;;;;;4950162;29;20046;-69
2022/01/29 11:04:38;;;;;;;10.82;9.05;;;3.20;99.90;;;;;;4952027;28;20460;-69
2022/01/29 11:07:10;;;;;;;11.07;9.88;;;3.10;99.90;;;;;;4952005;28;20408;-70
2022/01/29 11:09:42;;;;;;;8.75;6.65;;;3.10;99.90;;;;;;4953692;28;20110;-71
2022/01/29 11:12:09;;;;;;;8.10;7.30;;;3.20;99.90;;;;;;4953459;28;20074;-70
2022/01/29 11:14:35;;;;;;;6.38;5.78;;;3.10;99.90;;;;;;4952306;28;20027;-70
2022/01/29 11:17:03;;;;;;;6.40;5.75;;;3.40;99.90;;;;;;4957381;28;20504;-73
2022/01/29 11:19:29;;;;;;;6.10;5.60;;;3.30;99.90;;;;;;4951672;28;20107;-74
2022/01/29 11:21:59;;;;;;;6.10;5.57;;;3.40;99.90;;;;;;4952891;28;20046;-73
2022/01/29 11:24:27;;;;;;;7.18;6.13;;;3.50;99.90;;;;;;4952829;28;20020;-71
2022/01/29 11:26:53;;;;;;;7.78;6.97;;;3.40;99.90;;;;;;4955349;28;20122;-71
2022/01/29 11:29:36;;;;;;;7.88;7.13;;;3.20;99.90;;;;;;4952656;29;20642;-71
2022/01/29 11:32:20;;;;;;;8.50;7.70;;;3.10;99.90;;;;;;4951977;28;20035;-70
2022/01/29 11:35:02;;;;;;;8.00;7.20;;;3.60;99.90;;;;;;4951009;29;20834;-72
2022/01/29 11:37:49;;;;;;;16.42;13.35;;;3.10;99.90;;;;;;4949965;28;20051;-71
2022/01/29 11:40:23;;;;;;;10.25;8.80;;;3.10;99.90;;;;;;4950528;29;20180;-71
2022/01/29 11:42:55;;;;;;;14.13;11.63;;;3.30;99.90;;;;;;4951646;28;20035;-72
2022/01/29 11:46:15;;;;;;;10.50;8.00;;;3.30;99.90;;;;;;4952581;28;20492;-70
2022/01/29 11:48:51;;;;;;;9.27;8.30;;;3.00;99.90;;;;;;4937903;29;20052;-71
2022/01/29 11:51:49;;;;;;;9.48;8.57;;;3.50;99.90;;;;;;4952717;28;20031;-70
2022/01/29 11:54:25;;;;;;;14.93;13.43;;;3.50;99.90;;;;;;4952626;28;20031;-69
2022/01/29 11:57:16;;;;;;;23.77;21.48;;;3.50;99.90;;;;;;4953973;29;20023;-67
2022/01/29 11:59:42;;;;;;;12.93;11.60;;;3.50;99.90;;;;;;4952650;29;20074;-69
2022/01/29 12:02:14;;;;;;;11.25;10.13;;;3.70;99.90;;;;;;4952617;29;20043;-69
2022/01/29 12:04:53;;;;;;;9.15;8.25;;;3.60;99.90;;;;;;4950923;29;20054;-68
2022/01/29 12:07:31;;;;;;;9.73;8.73;;;3.70;99.90;;;;;;4952881;28;20023;-70
2022/01/29 12:10:07;;;;;;;7.75;6.40;;;3.60;99.90;;;;;;4950378;28;20059;-68
2022/01/29 12:12:35;;;;;;;7.90;7.10;;;3.40;99.90;;;;;;4934487;29;20559;-67
2022/01/29 12:15:10;;;;;;;8.07;7.28;;;3.20;99.90;;;;;;4953521;28;20374;-67
2022/01/29 12:17:45;;;;;;;6.95;6.32;;;3.60;99.90;;;;;;4952369;29;20035;-68
2022/01/29 12:20:13;;;;;;;6.78;5.90;;;3.70;99.90;;;;;;4949851;28;20094;-69
2022/01/29 12:22:41;;;;;;;8.77;7.78;;;3.60;99.90;;;;;;4952133;28;20058;-69
2022/01/29 12:25:09;;;;;;;7.43;6.72;;;3.50;99.90;;;;;;4949209;28;20023;-69
2022/01/29 12:28:00;;;;;;;8.27;7.47;;;3.50;99.90;;;;;;4949884;28;20028;-69
2022/01/29 12:30:37;;;;;;;6.60;5.95;;;3.60;99.90;;;;;;4950314;28;20481;-67
2022/01/29 12:33:08;;;;;;;6.57;5.97;;;3.90;99.90;;;;;;4953232;28;20074;-67
2022/01/29 12:36:02;;;;;;;7.40;6.70;;;3.50;99.90;;;;;;4953428;29;20508;-68
2022/01/29 12:38:37;;;;;;;8.55;7.75;;;3.60;99.90;;;;;;4951010;29;20034;-67
2022/01/29 12:41:05;;;;;;;8.90;8.07;;;3.90;99.90;;;;;;4949823;28;20045;-68
2022/01/29 12:43:38;;;;;;;11.40;10.30;;;3.90;99.90;;;;;;4950508;28;20493;-68
2022/01/29 12:46:15;;;;;;;6.15;5.55;;;3.90;99.90;;;;;;4949866;29;20035;-67
2022/01/29 12:48:43;;;;;;;7.30;6.60;;;3.60;99.90;;;;;;4950109;28;20065;-68
2022/01/29 12:51:11;;;;;;;7.47;6.68;;;4.10;99.90;;;;;;4951239;28;20381;-67
2022/01/29 12:53:39;;;;;;;8.30;7.50;;;4.00;99.90;;;;;;4951426;28;20548;-68
2022/01/29 12:56:10;;;;;;;8.27;7.47;;;4.00;99.90;;;;;;4949730;28;20032;-67
2022/01/29 12:58:39;;;;;;;9.48;8.48;;;3.60;99.90;;;;;;4945808;28;20028;-68
2022/01/29 13:01:09;;;;;;;8.85;7.30;;;3.70;99.90;;;;;;4940729;29;20042;-67
2022/01/29 13:03:37;;;;;;;8.75;7.82;;;3.80;99.90;;;;;;4950226;28;20032;-69